Main page
Satellite images 15-day forecastsClimateMarine weather Cyclones Lightning AirportsFAQ Newsletter About
Weather : Europe Africa North America South America Asia Australia-Oceania Others
Languages Contact

Singapore, Singapore

Military airbase Paya Lebar

latitude: 01-22N, longitude: 103-55E, elevation: 18 m


METAR: WSAP 011200Z 10004KT 9999 FEW018 BKN300 30/25 Q1009
TAF: WSAP 011100Z 0112/0218 15008KT 9999 FEW018CB SCT020

Time: 20:12 (12:12 UTC)

Current weather observation

The report was made 12 minutes ago, at 12:00 UTC  
Wind 04 kt from the East
Temperature 30°C
Humidity 75%
Pressure 1009 hPa
Visibility 10 km or more
Few clouds at a height of 1800 ft
Broken clouds at a height of 30000 ft

Change units

Forecast

The report was made 01 hour and 12 minutes ago, at 11:00 UTC  
Forecast valid from 01 at 12 UTC to 02 at 18 UTC
Wind 08 kt from the South/Southeast
Visibility 10 km or more
Few clouds at a height of 1800 ft , Cumulonimbus.
Scattered clouds at a height of 2000 ft
The information on this site is subject to a disclaimer
Weather : Europe Africa North America South America Asia Australia-Oceania Others
Satellite images 15-day forecastsClimateMarine weather Cyclones Lightning AirportsFAQ Languages Contact Newsletter About